Flight Track Log - Related Links

Times and Time Zones

All times are in EDT time to prevent confusion due to time zone crossing. See the FLG3757 flight status page for this flight to view local times or setup timezone preferences in your user account.

Time Position Orientation Groundspeed Altitude Reporting Facility
EDT Latitude Longitude Course Direction KTS MPH feet Rate Location/Type
Mon 06:26:18 AM 42.1281 -75.9717 249° West 186 214 4,200  Level New York Center
Mon 06:27:18 AM 42.1058 -76.0483 249° West 175 201 6,100 1,950 Climbing New York Center
Mon 06:28:18 AM 42.0836 -76.1303 250° West 229 264 8,100 2,150 Climbing New York Center
Mon 06:29:18 AM 42.0564 -76.2203 248° West 251 289 10,400 1,636 Climbing New York Center
Mon 06:30:19 AM 42.0222 -76.3292 247° West 274 315 11,400 1,000 Climbing New York Center
Mon 06:31:12 AM 41.9972 -76.4161 249° West 314 361 12,300 1,263 Climbing Cleveland Center
Mon 06:32:13 AM 41.9636 -76.5325 249° West 334 384 13,800 1,475 Climbing Cleveland Center
Mon 06:33:14 AM 41.9261 -76.6542 248° West 336 387 15,300 1,328 Climbing Cleveland Center
Mon 06:34:15 AM 41.9094 -76.7772 260° West 360 414 16,500 1,230 Climbing Cleveland Center
Mon 06:35:16 AM 41.8986 -76.9072 264° West 355 409 17,800 1,230 Climbing Cleveland Center
Mon 06:36:17 AM 41.8883 -77.0392 264° West 353 406 19,000 1,230 Climbing Cleveland Center
Mon 06:37:18 AM 41.8747 -77.1981 263° West 354 407 20,300 1,131 Climbing Cleveland Center
Mon 06:38:19 AM 41.8642 -77.3347 264° West 361 415 21,300 984 Climbing Cleveland Center
Mon 06:39:20 AM 41.8522 -77.4725 263° West 366 421 22,300 885 Climbing Cleveland Center
Mon 06:40:21 AM 41.8411 -77.6036 264° West 366 421 23,100 738 Climbing Cleveland Center
Mon 06:41:22 AM 41.8300 -77.7386 264° West 367 422 23,800 689 Climbing Cleveland Center
Mon 06:42:23 AM 41.8175 -77.8747 263° West 369 425 24,500 683 Climbing Cleveland Center
Mon 06:43:25 AM 41.8064 -78.0125 264° West 372 428 25,200 683 Climbing Cleveland Center
Mon 06:44:26 AM 41.7936 -78.1497 263° West 374 430 25,900 393 Climbing Cleveland Center
Mon 06:45:27 AM 41.7769 -78.3167 262° West 379 436 26,000 49 Climbing Cleveland Center
Mon 06:46:28 AM 41.7644 -78.4606 263° West 389 448 26,000  Level Cleveland Center
Mon 06:47:29 AM 41.7511 -78.6092 263° West 401 461 26,000  Level Cleveland Center
Mon 06:48:30 AM 41.7364 -78.7578 262° West 403 464 26,000  Level Cleveland Center
Mon 06:49:32 AM 41.7200 -78.9225 262° West 413 475 26,000  Level Cleveland Center
Mon 06:50:33 AM 41.7053 -79.0850 263° West 413 475 26,000  Level Cleveland Center
Mon 06:51:34 AM 41.6897 -79.2383 262° West 414 476 26,000  Level Cleveland Center
Mon 06:52:35 AM 41.6725 -79.3950 262° West 417 480 26,000  Level Cleveland Center
Mon 06:53:36 AM 41.6569 -79.5492 262° West 420 483 26,000  Level Cleveland Center
Mon 06:54:37 AM 41.6325 -79.7017 258° West 422 486 26,000  Level Cleveland Center
Mon 06:55:38 AM 41.6083 -79.8528 258° West 421 484 26,000  Level Cleveland Center
Mon 06:56:40 AM 41.5769 -80.0114 255° West 421 484 26,000  Level Cleveland Center
Mon 06:57:41 AM 41.5419 -80.1589 252° West 420 483 26,000  Level Cleveland Center
Mon 06:58:42 AM 41.5069 -80.3050 252° West 419 482 26,000  Level Cleveland Center
Mon 06:59:43 AM 41.4692 -80.4692 253° West 419 482 26,000  Level Cleveland Center
Mon 07:00:45 AM 41.4353 -80.6167 253° West 416 479 26,000  Level Cleveland Center
Mon 07:01:46 AM 41.3992 -80.7633 252° West 414 476 26,000  Level Cleveland Center
Mon 07:02:47 AM 41.3644 -80.9097 253° West 413 475 26,000  Level Cleveland Center
Mon 07:03:49 AM 41.3286 -81.0561 252° West 413 475 26,000  Level Cleveland Center
Mon 07:04:50 AM 41.2925 -81.2050 252° West 416 479 26,000  Level Cleveland Center
Mon 07:05:51 AM 41.2550 -81.3519 251° West 416 479 26,000  Level Cleveland Center
Mon 07:06:53 AM 41.2219 -81.5000 254° West 417 480 26,000  Level Cleveland Center
Mon 07:07:54 AM 41.1939 -81.6494 256° West 417 480 26,000 -492 Level Cleveland Center
Mon 07:08:55 AM 41.1664 -81.8011 257° West 419 482 25,000 -976 Descending Cleveland Center
Mon 07:09:57 AM 41.1586 -81.9550 266° West 434 499 24,000 -488 Descending Cleveland Center
Mon 07:10:58 AM 41.2336 -82.0797 309° West 433 498 24,000 -1,230 Level Cleveland Center
Mon 07:11:59 AM 41.3311 -82.2156 314° West 436 502 21,500 -2,293 Descending Cleveland Center
Mon 07:13:01 AM 41.4144 -82.3342 313° West 437 503 19,300 -2,244 Descending Cleveland Center
Mon 07:14:02 AM 41.4928 -82.4439 314° West 409 471 16,900 -2,164 Descending Cleveland Center
Mon 07:15:03 AM 41.5658 -82.5478 313° West 389 448 14,900 -1,707 Descending Cleveland Center
Mon 07:16:05 AM 41.6358 -82.6481 313° West 370 426 13,400 -1,674 Descending Cleveland Center
Mon 07:16:29 AM 41.6700 -82.6969 313° West 358 412 12,500 -1,377 Descending Cleveland Center
Mon 07:17:06 AM 41.7047 -82.7458 314° West 361 415 12,000 -492 Descending Cleveland Center
Mon 07:17:30 AM 41.7403 -82.7956 314° West 351 404 12,000  Level Cleveland Center
Mon 07:18:08 AM 41.7742 -82.8367 318° Northwest 353 406 12,000  Level Cleveland Center
Mon 07:18:31 AM 41.8117 -82.8806 319° Northwest 343 395 12,000  Level Cleveland Center
Mon 07:19:09 AM 41.8436 -82.9186 318° Northwest 336 387 12,000  Level Cleveland Center
Mon 07:19:38 AM 41.8844 -82.9686 318° Northwest 316 364 12,000  Level Cleveland Center
Mon 07:20:11 AM 41.9086 -82.9972 319° Northwest 320 368 12,000  Level Cleveland Center
Mon 07:20:39 AM 41.9517 -83.0506 317° Northwest 320 368 12,000  Level Cleveland Center
Mon 07:21:12 AM 41.9858 -83.0886 320° Northwest 308 354 12,000  Level Cleveland Center
Mon 07:21:40 AM 42.0114 -83.1206 317° Northwest 269 310 12,000  Level Cleveland Center
Mon 07:22:14 AM 42.0414 -83.1564 318° Northwest 277 319 12,000  Level Cleveland Center
Mon 07:22:35 AM 42.0631 -83.1839 317° Northwest 276 318 12,000  Level Cleveland Center
Mon 07:23:15 AM 42.0989 -83.2258 319° Northwest 270 311 12,000 -300 Level Cleveland Center
Mon 07:23:35 AM 42.1219 -83.2369 340° North 255 293 11,700 -1,258 Descending Cleveland Center
Mon 07:24:17 AM 42.1692 -83.2239 12° North 268 308 10,700 -1,574 Descending Cleveland Center
Mon 07:24:36 AM 42.1936 -83.2047 30° Northeast 284 327 10,100 -1,770 Descending Cleveland Center
Mon 07:25:18 AM 42.2322 -83.1725 32° Northeast 279 321 8,900 -1,967 Descending Cleveland Center
Mon 07:25:37 AM 42.2606 -83.1492 31° Northeast 276 318 8,100 -1,765 Descending Cleveland Center
Mon 07:26:26 AM 42.3133 -83.1169 24° Northeast 243 280 6,900 -1,314 Descending Cleveland Center
Mon 07:27:22 AM 42.3606 -83.0947 19° North 251 289 5,800 -1,522 Descending Cleveland Center
Mon 07:27:33 AM 42.3856 -83.1042 344° North 234 269 5,200 -787 Descending Cleveland Center
Mon 07:28:23 AM 42.4086 -83.1519 303° West 201 231 5,000 -197 Descending Cleveland Center
Mon 07:28:34 AM 42.4081 -83.1667 267° West 157 181 5,000 -97 Level Cleveland Center
Mon 07:29:25 AM 42.3864 -83.2033 231° Southwest 171 197 4,900 -537 Descending Cleveland Center
Mon 07:29:41 AM 42.3747 -83.2186 224° Southwest 167 192 4,400 -1,377 Descending Cleveland Center
Mon 07:30:26 AM 42.3472 -83.2400 210° Southwest 172 198 3,500 -1,164 Descending Cleveland Center
Mon 07:30:48 AM 42.3281 -83.2544 209° Southwest 162 186 3,100 -871 Descending Cleveland Center
Mon 07:31:28 AM 42.3067 -83.2706 209° Southwest 171 197 2,600 -885 Descending Cleveland Center
Mon 07:31:49 AM 42.2881 -83.2828 206° Southwest 157 181 2,200 -787 Descending Cleveland Center
Mon 07:32:29 AM 42.2711 -83.2956 209° Southwest 155 178 1,800 -588 Descending Cleveland Center
Mon 07:33:31 AM 42.2414 -83.3178 209° Southwest 134 154 1,200 -711 Descending Cleveland Center
Mon 07:33:45 AM 42.2281 -83.3278 209° Southwest 125 144 900 -295 Descending Cleveland Center
Mon 07:34:32 AM 42.2128 -83.3394 209° Southwest 132 152 900  Level Cleveland Center

Login

Don't have an account? Register now (free) for customized features, flight alerts, and more!